createdAt,value
2023-03-07T00:01:34.630Z,53.83
2023-03-07T00:05:37.806Z,53.83
2023-03-07T00:09:40.801Z,53.78
2023-03-07T00:13:45.444Z,53.89
2023-03-07T00:17:48.434Z,54.17
2023-03-07T00:21:51.540Z,53.84
2023-03-07T00:26:02.124Z,54.04
2023-03-07T00:30:07.689Z,54.33
2023-03-07T00:34:10.654Z,54.31
2023-03-07T00:38:13.752Z,54.42
2023-03-07T00:42:17.413Z,54.48
2023-03-07T00:46:24.498Z,54.62
2023-03-07T00:50:27.481Z,54.48
2023-03-07T00:54:30.903Z,54.80
2023-03-07T00:58:36.104Z,54.83
2023-03-07T01:02:40.820Z,54.76
2023-03-07T01:06:43.833Z,55.00
2023-03-07T01:10:48.678Z,55.12
2023-03-07T01:14:52.566Z,55.24
2023-03-07T01:18:58.820Z,55.17
2023-03-07T01:23:03.894Z,55.30
2023-03-07T01:27:07.755Z,55.36
2023-03-07T01:31:10.837Z,55.47
2023-03-07T01:35:16.834Z,55.63
2023-03-07T01:39:19.816Z,55.76
2023-03-07T01:43:35.289Z,55.84
2023-03-07T01:47:43.612Z,56.13
2023-03-07T01:51:52.260Z,56.09
2023-03-07T01:55:55.350Z,56.23
2023-03-07T02:00:05.769Z,56.27
2023-03-07T02:04:22.523Z,56.45
2023-03-07T02:12:48.165Z,56.64
2023-03-07T02:16:52.258Z,56.65
2023-03-07T02:21:01.719Z,56.54
2023-03-07T02:25:13.493Z,56.56
2023-03-07T02:29:18.065Z,56.40
2023-03-07T02:33:25.126Z,56.66
2023-03-07T02:37:38.219Z,56.91
2023-03-07T02:41:42.123Z,56.98
2023-03-07T02:45:55.729Z,57.20
2023-03-07T02:49:58.937Z,57.20
2023-03-07T02:54:02.734Z,57.13
2023-03-07T02:58:06.159Z,57.22
2023-03-07T03:02:10.592Z,57.33
2023-03-07T03:06:13.914Z,57.24
2023-03-07T03:10:17.259Z,57.48
2023-03-07T03:14:20.600Z,57.42
2023-03-07T03:18:25.489Z,57.56
2023-03-07T03:22:28.755Z,57.68
2023-03-07T03:26:31.988Z,57.66
2023-03-07T03:30:36.101Z,57.26
2023-03-07T03:34:41.910Z,57.71
2023-03-07T03:38:45.334Z,57.77
2023-03-07T03:42:48.433Z,57.93
2023-03-07T03:46:55.857Z,58.15
2023-03-07T03:51:06.120Z,57.87
2023-03-07T03:55:10.384Z,57.85
2023-03-07T03:59:13.474Z,57.68
2023-03-07T04:03:16.631Z,57.77
2023-03-07T04:07:22.223Z,57.63
2023-03-07T04:11:26.938Z,57.89
2023-03-07T04:15:30.145Z,57.91
2023-03-07T04:19:33.404Z,58.00
2023-03-07T04:23:38.457Z,58.02
2023-03-07T04:27:41.783Z,58.17
2023-03-07T04:31:45.029Z,58.36
2023-03-07T04:35:48.685Z,58.32
2023-03-07T04:39:53.180Z,58.41
2023-03-07T04:43:57.057Z,58.45
2023-03-07T04:48:01.351Z,58.50
2023-03-07T04:52:05.584Z,58.34
2023-03-07T04:56:11.549Z,58.56
2023-03-07T05:00:17.107Z,58.43
2023-03-07T05:04:20.709Z,58.36
2023-03-07T05:08:24.345Z,58.49
2023-03-07T05:12:29.216Z,58.95
2023-03-07T05:16:33.653Z,58.59
2023-03-07T05:20:36.866Z,58.63
2023-03-07T05:24:40.112Z,58.38
2023-03-07T05:28:44.736Z,58.38
2023-03-07T05:32:47.910Z,58.21
2023-03-07T05:36:51.802Z,57.82
2023-03-07T05:40:55.299Z,58.32
2023-03-07T05:44:59.798Z,58.37
2023-03-07T05:49:03.063Z,58.37
2023-03-07T05:53:06.535Z,58.61
2023-03-07T05:57:10.168Z,58.48
2023-03-07T06:01:14.894Z,58.44
2023-03-07T06:05:18.196Z,58.42
2023-03-07T06:09:22.356Z,58.61
2023-03-07T06:13:26.693Z,58.62
2023-03-07T06:17:31.160Z,58.86
2023-03-07T06:21:34.736Z,59.01
2023-03-07T06:25:38.329Z,58.76
2023-03-07T06:29:41.613Z,58.84
2023-03-07T06:33:47.669Z,58.81
2023-03-07T06:37:52.376Z,58.82
2023-03-07T06:41:55.494Z,58.60
2023-03-07T06:45:58.718Z,58.51
2023-03-07T06:50:09.103Z,58.18
2023-03-07T06:54:13.401Z,58.32
2023-03-07T06:58:16.902Z,58.27
2023-03-07T07:02:20.467Z,58.20
2023-03-07T07:06:25.405Z,58.18
2023-03-07T07:10:28.848Z,58.05
2023-03-07T07:14:32.394Z,57.97
2023-03-07T07:18:35.940Z,58.14
2023-03-07T07:22:43.368Z,57.99
2023-03-07T07:26:46.603Z,57.98
2023-03-07T07:30:49.652Z,57.86
2023-03-07T07:34:53.104Z,57.91
2023-03-07T07:38:57.840Z,58.11
2023-03-07T07:43:01.050Z,57.89
2023-03-07T07:47:20.026Z,58.05
2023-03-07T07:51:23.344Z,57.94
2023-03-07T07:55:28.536Z,57.36
2023-03-07T07:59:34.275Z,57.36
2023-03-07T08:03:38.404Z,57.55
2023-03-07T08:07:41.574Z,57.26
2023-03-07T08:11:46.500Z,57.40
2023-03-07T08:15:49.656Z,57.02
2023-03-07T08:19:52.732Z,56.93
2023-03-07T08:23:56.710Z,56.53
2023-03-07T08:28:03.486Z,56.30
2023-03-07T08:32:07.315Z,56.35
2023-03-07T08:36:10.741Z,56.41
2023-03-07T08:40:14.621Z,56.25
2023-03-07T08:44:19.032Z,55.97
2023-03-07T08:48:22.184Z,56.44
2023-03-07T08:52:25.236Z,56.01
2023-03-07T08:56:28.393Z,56.00
2023-03-07T09:00:32.948Z,56.00
2023-03-07T09:04:36.161Z,56.01
2023-03-07T09:08:39.167Z,55.70
2023-03-07T09:12:42.233Z,55.29
2023-03-07T09:16:46.587Z,55.25
2023-03-07T09:20:51.043Z,54.92
2023-03-07T09:24:54.055Z,55.25
2023-03-07T09:28:57.153Z,54.94
2023-03-07T09:33:01.577Z,54.49
2023-03-07T09:37:04.764Z,54.93
2023-03-07T09:41:27.642Z,54.57
2023-03-07T09:45:45.365Z,54.81
2023-03-07T09:49:55.358Z,54.79
2023-03-07T09:54:01.953Z,54.66
2023-03-07T09:58:10.942Z,54.70
2023-03-07T10:02:21.679Z,54.49
2023-03-07T10:06:31.521Z,54.46
2023-03-07T10:10:39.818Z,53.92
2023-03-07T10:14:56.108Z,53.82
2023-03-07T10:19:10.032Z,54.05
2023-03-07T10:23:39.144Z,53.35
2023-03-07T10:27:42.305Z,52.28
2023-03-07T10:31:50.014Z,51.58
2023-03-07T10:35:59.205Z,50.42
2023-03-07T10:40:05.061Z,50.44
2023-03-07T10:44:17.486Z,50.14
2023-03-07T10:48:23.558Z,50.63
2023-03-07T10:52:35.196Z,49.62
2023-03-07T10:56:39.650Z,49.79
2023-03-07T11:00:44.400Z,49.30
2023-03-07T11:04:48.436Z,48.89
2023-03-07T11:08:51.565Z,48.50
2023-03-07T11:12:57.389Z,46.66
2023-03-07T11:17:02.063Z,47.73
2023-03-07T11:21:05.486Z,47.55
2023-03-07T11:25:19.066Z,47.39
2023-03-07T11:29:24.900Z,47.48
2023-03-07T11:33:39.271Z,47.89
2023-03-07T11:37:58.793Z,46.52
2023-03-07T11:42:06.311Z,46.40
2023-03-07T11:46:17.654Z,46.82
2023-03-07T11:50:24.279Z,47.05
2023-03-07T11:54:35.585Z,48.09
2023-03-07T11:58:53.005Z,48.44
2023-03-07T12:03:15.076Z,49.39
2023-03-07T12:07:33.569Z,49.52
2023-03-07T12:11:52.141Z,50.11
2023-03-07T12:16:06.221Z,49.46
2023-03-07T12:20:27.192Z,49.08
2023-03-07T12:24:36.297Z,48.65
2023-03-07T12:28:46.557Z,48.57
2023-03-07T12:32:52.066Z,48.49
2023-03-07T12:37:00.737Z,48.78
2023-03-07T12:41:12.167Z,48.91
2023-03-07T12:45:19.944Z,49.22
2023-03-07T12:49:32.266Z,49.37
2023-03-07T12:53:47.770Z,49.78
2023-03-07T12:57:59.323Z,49.33
2023-03-07T13:02:05.559Z,50.14
2023-03-07T13:06:17.892Z,49.91
2023-03-07T13:10:24.521Z,49.94
2023-03-07T13:14:46.172Z,50.52
2023-03-07T13:18:49.135Z,50.37
2023-03-07T13:23:01.308Z,50.72
2023-03-07T13:27:15.244Z,51.45
2023-03-07T13:31:39.839Z,51.73
2023-03-07T13:35:55.763Z,51.93
2023-03-07T13:40:02.807Z,51.55
2023-03-07T13:44:29.017Z,51.77
2023-03-07T13:49:02.029Z,51.35
2023-03-07T13:53:12.767Z,51.76
2023-03-07T13:57:17.960Z,51.60
2023-03-07T14:01:25.542Z,52.17
2023-03-07T14:05:30.062Z,52.20
2023-03-07T14:09:41.928Z,52.60
2023-03-07T14:14:20.562Z,52.63
2023-03-07T14:18:37.432Z,53.47
2023-03-07T14:22:52.466Z,53.46
2023-03-07T14:26:58.803Z,53.96
2023-03-07T14:31:05.528Z,54.42
2023-03-07T14:35:15.233Z,54.70
2023-03-07T14:39:18.654Z,55.27
2023-03-07T14:43:37.685Z,55.68
2023-03-07T14:48:00.246Z,56.13
2023-03-07T14:52:05.617Z,56.59
2023-03-07T14:56:09.820Z,57.07
2023-03-07T15:00:16.741Z,57.39
2023-03-07T15:04:24.915Z,57.58
2023-03-07T15:08:31.622Z,57.85
2023-03-07T15:12:34.839Z,59.19
2023-03-07T15:16:41.472Z,58.98
2023-03-07T15:20:45.789Z,59.84
2023-03-07T15:24:52.988Z,59.77
2023-03-07T15:29:01.382Z,60.22
2023-03-07T15:33:06.468Z,60.63
2023-03-07T15:37:22.651Z,60.79
2023-03-07T15:41:29.787Z,61.13
2023-03-07T15:45:35.160Z,61.63
2023-03-07T15:49:44.348Z,61.87
2023-03-07T15:53:56.075Z,62.12
2023-03-07T15:58:02.916Z,62.40
2023-03-07T16:02:42.114Z,62.56
2023-03-07T16:06:46.818Z,62.76
2023-03-07T16:10:53.704Z,63.02
2023-03-07T16:15:00.012Z,63.44
2023-03-07T16:19:03.548Z,63.62
2023-03-07T16:23:08.031Z,63.99
2023-03-07T16:27:16.605Z,64.35
2023-03-07T16:31:21.603Z,64.38
2023-03-07T16:35:26.414Z,64.39
2023-03-07T16:39:29.758Z,64.87
2023-03-07T16:43:35.313Z,64.61
2023-03-07T16:47:39.698Z,65.38
2023-03-07T16:51:42.904Z,65.33
2023-03-07T16:55:46.974Z,65.40
2023-03-07T16:59:50.041Z,65.50
2023-03-07T17:03:56.382Z,65.93
2023-03-07T17:08:00.145Z,65.97
2023-03-07T17:12:03.206Z,66.28
2023-03-07T17:16:06.631Z,66.00
2023-03-07T17:20:14.156Z,66.71
2023-03-07T17:24:17.327Z,66.74
2023-03-07T17:28:20.672Z,66.76
2023-03-07T17:32:24.209Z,67.00
2023-03-07T17:36:28.602Z,67.01
2023-03-07T17:40:32.322Z,67.25
2023-03-07T17:44:35.570Z,67.22
2023-03-07T17:48:38.908Z,67.25
2023-03-07T17:52:43.567Z,67.09
2023-03-07T17:56:46.778Z,67.54
2023-03-07T18:00:50.452Z,67.10
2023-03-07T18:04:53.729Z,67.21
2023-03-07T18:08:58.143Z,67.08
2023-03-07T18:13:01.306Z,67.11
2023-03-07T18:17:04.404Z,67.02
2023-03-07T18:21:10.244Z,66.86
2023-03-07T18:25:16.951Z,67.03
2023-03-07T18:29:21.015Z,67.10
2023-03-07T18:33:24.908Z,66.91
2023-03-07T18:37:29.731Z,66.67
2023-03-07T18:41:34.161Z,66.83
2023-03-07T18:45:37.241Z,66.58
2023-03-07T18:49:40.342Z,67.31
2023-03-07T18:53:43.849Z,67.12
2023-03-07T18:57:48.253Z,67.51
2023-03-07T19:01:51.377Z,67.63
2023-03-07T19:05:54.399Z,67.40
2023-03-07T19:09:57.685Z,67.39
2023-03-07T19:14:02.145Z,67.28
2023-03-07T19:18:05.270Z,67.06
2023-03-07T19:22:10.928Z,67.02
2023-03-07T19:26:16.702Z,67.13
2023-03-07T19:30:21.365Z,67.38
2023-03-07T19:34:24.969Z,67.73
2023-03-07T19:38:28.004Z,67.70
2023-03-07T19:42:31.093Z,67.47
2023-03-07T19:46:35.461Z,67.50
2023-03-07T19:50:41.718Z,67.91
2023-03-07T19:54:45.488Z,68.37
2023-03-07T19:58:49.113Z,68.17
2023-03-07T20:02:53.560Z,68.43
2023-03-07T20:06:56.647Z,68.46
2023-03-07T20:11:12.656Z,68.53
2023-03-07T20:15:15.889Z,69.25
2023-03-07T20:19:20.757Z,68.94
2023-03-07T20:23:23.812Z,69.21
2023-03-07T20:27:27.224Z,69.46
2023-03-07T20:31:30.705Z,69.38
2023-03-07T20:35:35.317Z,69.54
2023-03-07T20:39:38.732Z,69.45
2023-03-07T20:43:41.769Z,69.49
2023-03-07T20:47:44.878Z,69.52
2023-03-07T20:51:49.745Z,69.51
2023-03-07T20:55:52.904Z,69.58
2023-03-07T20:59:56.028Z,69.77
2023-03-07T21:04:06.133Z,69.98
2023-03-07T21:08:11.175Z,69.92
2023-03-07T21:12:14.212Z,69.88
2023-03-07T21:16:19.338Z,69.81
2023-03-07T21:20:22.424Z,69.72
2023-03-07T21:24:26.800Z,69.75
2023-03-07T21:28:29.844Z,69.86
2023-03-07T21:32:32.880Z,70.05
2023-03-07T21:36:36.330Z,69.97
2023-03-07T21:40:42.513Z,69.92
2023-03-07T21:44:45.606Z,69.73
2023-03-07T21:48:48.818Z,69.68
2023-03-07T21:52:51.890Z,69.65
2023-03-07T21:56:56.329Z,69.41
2023-03-07T22:00:59.975Z,69.39
2023-03-07T22:05:02.998Z,69.48
2023-03-07T22:09:06.161Z,69.39
2023-03-07T22:13:10.622Z,69.36
2023-03-07T22:17:13.892Z,69.21
2023-03-07T22:21:17.301Z,69.21
2023-03-07T22:25:20.469Z,69.34
2023-03-07T22:29:24.836Z,69.38
2023-03-07T22:33:27.945Z,69.41
2023-03-07T22:37:31.155Z,69.05
2023-03-07T22:41:34.950Z,68.86
2023-03-07T22:45:39.359Z,68.96
2023-03-07T22:49:42.623Z,69.05
2023-03-07T22:53:45.910Z,68.88
2023-03-07T22:57:49.021Z,68.93
2023-03-07T23:01:54.743Z,68.69
2023-03-07T23:06:02.190Z,69.01
2023-03-07T23:10:05.821Z,69.72
2023-03-07T23:14:09.559Z,70.42
2023-03-07T23:18:14.681Z,70.90
2023-03-07T23:22:17.862Z,71.23
2023-03-07T23:26:23.058Z,71.43
2023-03-07T23:30:26.126Z,71.49
2023-03-07T23:34:30.966Z,71.47
2023-03-07T23:38:34.318Z,71.45
2023-03-07T23:42:37.545Z,71.71
2023-03-07T23:46:40.676Z,71.66
2023-03-07T23:50:45.075Z,71.81
2023-03-07T23:54:48.162Z,71.77
2023-03-07T23:58:51.637Z,71.51
